sensor_id;sensor_type;location;lat;lon;timestamp;pressure;altitude;pressure_sealevel;temperature;humidity
60820;BME280;46641;48.904;9.126;2022-10-16T00:00:32;98426.25;;;20.13;57.21
60820;BME280;46641;48.904;9.126;2022-10-16T00:05:24;98413.34;;;20.17;56.88
60820;BME280;46641;48.904;9.126;2022-10-16T00:10:14;98410.06;;;20.15;57.22
60820;BME280;46641;48.904;9.126;2022-10-16T00:15:05;98407.22;;;20.16;56.94
60820;BME280;46641;48.904;9.126;2022-10-16T00:19:55;98405.38;;;20.17;56.84
60820;BME280;46641;48.904;9.126;2022-10-16T00:24:46;98397.81;;;20.14;57.00
60820;BME280;46641;48.904;9.126;2022-10-16T00:29:37;98397.81;;;20.14;56.81
60820;BME280;46641;48.904;9.126;2022-10-16T00:34:27;98408.44;;;20.14;56.95
60820;BME280;46641;48.904;9.126;2022-10-16T00:39:18;98412.13;;;20.13;56.92
60820;BME280;46641;48.904;9.126;2022-10-16T00:49:37;98407.25;;;20.10;56.94
60820;BME280;46641;48.904;9.126;2022-10-16T00:54:30;98420.31;;;20.11;56.98
60820;BME280;46641;48.904;9.126;2022-10-16T00:59:24;98419.50;;;20.11;56.98
60820;BME280;46641;48.904;9.126;2022-10-16T01:04:15;98424.81;;;20.11;56.86
60820;BME280;46641;48.904;9.126;2022-10-16T01:09:21;98430.13;;;20.11;57.15
60820;BME280;46641;48.904;9.126;2022-10-16T01:14:27;98429.72;;;20.07;57.35
60820;BME280;46641;48.904;9.126;2022-10-16T01:24:41;98422.19;;;20.04;57.15
60820;BME280;46641;48.904;9.126;2022-10-16T01:35:18;98426.91;;;20.02;57.06
60820;BME280;46641;48.904;9.126;2022-10-16T01:40:13;98436.28;;;20.04;56.95
60820;BME280;46641;48.904;9.126;2022-10-16T01:45:06;98426.69;;;20.03;56.92
60820;BME280;46641;48.904;9.126;2022-10-16T01:49:58;98427.06;;;20.07;56.80
60820;BME280;46641;48.904;9.126;2022-10-16T01:54:52;98412.38;;;20.04;56.91
60820;BME280;46641;48.904;9.126;2022-10-16T01:59:49;98397.47;;;20.03;57.14
60820;BME280;46641;48.904;9.126;2022-10-16T02:04:46;98415.44;;;20.01;57.03
60820;BME280;46641;48.904;9.126;2022-10-16T02:09:37;98415.44;;;20.01;56.72
60820;BME280;46641;48.904;9.126;2022-10-16T02:14:28;98414.63;;;20.01;56.78
60820;BME280;46641;48.904;9.126;2022-10-16T02:19:20;98413.63;;;20.02;56.85
60820;BME280;46641;48.904;9.126;2022-10-16T02:24:32;98418.09;;;20.01;57.14
60820;BME280;46641;48.904;9.126;2022-10-16T02:29:25;98421.59;;;20.02;56.80
60820;BME280;46641;48.904;9.126;2022-10-16T02:34:16;98419.13;;;20.00;56.91
60820;BME280;46641;48.904;9.126;2022-10-16T02:39:09;98430.56;;;20.01;56.74
60820;BME280;46641;48.904;9.126;2022-10-16T02:43:59;98428.94;;;20.00;56.80
60820;BME280;46641;48.904;9.126;2022-10-16T02:48:50;98436.91;;;20.00;56.77
60820;BME280;46641;48.904;9.126;2022-10-16T02:53:40;98431.81;;;19.98;56.76
60820;BME280;46641;48.904;9.126;2022-10-16T02:58:30;98428.34;;;19.98;56.89
60820;BME280;46641;48.904;9.126;2022-10-16T03:03:20;98439.19;;;19.96;56.78
60820;BME280;46641;48.904;9.126;2022-10-16T03:08:11;98438.38;;;19.96;56.86
60820;BME280;46641;48.904;9.126;2022-10-16T03:13:02;98440.00;;;19.97;56.56
60820;BME280;46641;48.904;9.126;2022-10-16T03:17:52;98434.69;;;19.97;56.93
60820;BME280;46641;48.904;9.126;2022-10-16T03:22:43;98435.50;;;19.97;56.76
60820;BME280;46641;48.904;9.126;2022-10-16T03:27:33;98439.19;;;19.96;56.91
60820;BME280;46641;48.904;9.126;2022-10-16T03:32:23;98437.97;;;19.92;57.26
60820;BME280;46641;48.904;9.126;2022-10-16T03:37:15;98439.59;;;19.93;57.04
60820;BME280;46641;48.904;9.126;2022-10-16T03:42:05;98440.41;;;19.94;56.69
60820;BME280;46641;48.904;9.126;2022-10-16T03:46:55;98444.09;;;19.93;56.87
60820;BME280;46641;48.904;9.126;2022-10-16T03:51:45;98440.84;;;19.91;56.80
60820;BME280;46641;48.904;9.126;2022-10-16T03:56:36;98440.63;;;19.92;56.86
60820;BME280;46641;48.904;9.126;2022-10-16T04:01:26;98444.09;;;19.93;56.77
60820;BME280;46641;48.904;9.126;2022-10-16T04:06:16;98437.97;;;19.92;56.88
60820;BME280;46641;48.904;9.126;2022-10-16T04:11:06;98453.91;;;19.92;56.87
60820;BME280;46641;48.904;9.126;2022-10-16T04:15:57;98444.28;;;19.91;56.95
60820;BME280;46641;48.904;9.126;2022-10-16T04:20:47;98452.25;;;19.91;56.87
60820;BME280;46641;48.904;9.126;2022-10-16T04:25:37;98446.94;;;19.91;56.89
60820;BME280;46641;48.904;9.126;2022-10-16T04:30:28;98446.94;;;19.91;56.76
60820;BME280;46641;48.904;9.126;2022-10-16T04:35:20;98457.56;;;19.91;56.81
60820;BME280;46641;48.904;9.126;2022-10-16T04:40:10;98459.44;;;19.91;56.89
60820;BME280;46641;48.904;9.126;2022-10-16T04:45:01;98457.81;;;19.90;56.76
60820;BME280;46641;48.904;9.126;2022-10-16T04:49:51;98467.81;;;19.88;57.04
60820;BME280;46641;48.904;9.126;2022-10-16T04:54:42;98483.97;;;19.86;56.98
60820;BME280;46641;48.904;9.126;2022-10-16T04:59:32;98489.28;;;19.86;56.98
60820;BME280;46641;48.904;9.126;2022-10-16T05:04:22;98492.94;;;19.85;57.11
60820;BME280;46641;48.904;9.126;2022-10-16T05:09:13;98496.41;;;19.85;57.12
60820;BME280;46641;48.904;9.126;2022-10-16T05:14:03;98491.72;;;19.81;56.93
60820;BME280;46641;48.904;9.126;2022-10-16T05:18:53;98488.88;;;19.82;56.88
60820;BME280;46641;48.904;9.126;2022-10-16T05:23:44;98482.94;;;19.80;56.85
60820;BME280;46641;48.904;9.126;2022-10-16T05:28:35;98490.28;;;19.78;57.11
60820;BME280;46641;48.904;9.126;2022-10-16T05:33:25;98482.56;;;19.77;57.22
60820;BME280;46641;48.904;9.126;2022-10-16T05:38:16;98492.56;;;19.75;57.06
60820;BME280;46641;48.904;9.126;2022-10-16T05:43:07;98497.28;;;19.73;57.28
60820;BME280;46641;48.904;9.126;2022-10-16T05:47:57;98493.38;;;19.69;57.29
60820;BME280;46641;48.904;9.126;2022-10-16T05:52:47;98497.69;;;19.70;57.04
60820;BME280;46641;48.904;9.126;2022-10-16T05:57:38;98520.56;;;19.71;56.95
60820;BME280;46641;48.904;9.126;2022-10-16T06:02:28;98522.00;;;19.67;57.12
60820;BME280;46641;48.904;9.126;2022-10-16T06:07:19;98525.88;;;19.64;57.23
60820;BME280;46641;48.904;9.126;2022-10-16T06:12:09;98511.56;;;19.65;57.15
60820;BME280;46641;48.904;9.126;2022-10-16T06:17:00;98511.56;;;19.65;57.37
60820;BME280;46641;48.904;9.126;2022-10-16T06:21:50;98519.53;;;19.65;57.16
60820;BME280;46641;48.904;9.126;2022-10-16T06:26:40;98521.75;;;19.61;57.22
60820;BME280;46641;48.904;9.126;2022-10-16T06:31:31;98525.06;;;19.64;57.16
60820;BME280;46641;48.904;9.126;2022-10-16T06:36:24;98527.47;;;19.58;57.22
60820;BME280;46641;48.904;9.126;2022-10-16T06:41:17;98527.69;;;19.57;57.34
60820;BME280;46641;48.904;9.126;2022-10-16T06:46:10;98548.53;;;19.60;57.55
60820;BME280;46641;48.904;9.126;2022-10-16T06:51:08;98563.59;;;19.59;57.47
60820;BME280;46641;48.904;9.126;2022-10-16T06:56:17;98564.44;;;19.60;57.79
60820;BME280;46641;48.904;9.126;2022-10-16T07:01:08;98574.03;;;19.61;57.45
60820;BME280;46641;48.904;9.126;2022-10-16T07:06:03;98583.47;;;19.64;57.70
60820;BME280;46641;48.904;9.126;2022-10-16T07:11:01;98574.47;;;19.65;57.92
60820;BME280;46641;48.904;9.126;2022-10-16T07:15:52;98600.00;;;19.66;57.01
60820;BME280;46641;48.904;9.126;2022-10-16T07:20:42;98599.00;;;19.67;57.00
60820;BME280;46641;48.904;9.126;2022-10-16T07:25:33;98602.25;;;19.69;57.19
60820;BME280;46641;48.904;9.126;2022-10-16T07:30:23;98610.44;;;19.67;57.00
60820;BME280;46641;48.904;9.126;2022-10-16T07:35:13;98614.94;;;19.67;57.08
60820;BME280;46641;48.904;9.126;2022-10-16T07:40:05;98618.19;;;19.69;56.97
60820;BME280;46641;48.904;9.126;2022-10-16T07:44:55;98609.81;;;19.72;57.02
60820;BME280;46641;48.904;9.126;2022-10-16T07:49:45;98615.34;;;19.70;56.99
60820;BME280;46641;48.904;9.126;2022-10-16T07:54:36;98620.66;;;19.70;57.27
60820;BME280;46641;48.904;9.126;2022-10-16T07:59:26;98625.75;;;19.72;57.21
60820;BME280;46641;48.904;9.126;2022-10-16T08:04:16;98630.06;;;19.73;57.20
60820;BME280;46641;48.904;9.126;2022-10-16T08:09:07;98631.88;;;19.66;57.20
60820;BME280;46641;48.904;9.126;2022-10-16T08:13:58;98630.88;;;19.67;57.25
60820;BME280;46641;48.904;9.126;2022-10-16T08:18:48;98636.19;;;19.73;56.95
60820;BME280;46641;48.904;9.126;2022-10-16T08:23:41;98639.84;;;19.79;57.05
60820;BME280;46641;48.904;9.126;2022-10-16T08:28:31;98652.94;;;19.80;56.92
60820;BME280;46641;48.904;9.126;2022-10-16T08:33:22;98649.66;;;19.85;56.74
60820;BME280;46641;48.904;9.126;2022-10-16T08:38:12;98657.63;;;19.85;56.80
60820;BME280;46641;48.904;9.126;2022-10-16T08:43:09;98663.97;;;19.91;56.92
60820;BME280;46641;48.904;9.126;2022-10-16T08:53:46;98656.22;;;19.96;57.42
60820;BME280;46641;48.904;9.126;2022-10-16T08:58:39;98658.88;;;20.02;56.83
60820;BME280;46641;48.904;9.126;2022-10-16T09:04:01;98656.22;;;20.09;57.62
60820;BME280;46641;48.904;9.126;2022-10-16T09:19:15;98678.06;;;20.18;57.16
60820;BME280;46641;48.904;9.126;2022-10-16T09:24:17;98675.81;;;20.21;57.41
60820;BME280;46641;48.904;9.126;2022-10-16T09:29:13;98686.88;;;20.25;57.01
60820;BME280;46641;48.904;9.126;2022-10-16T09:34:04;98695.44;;;20.27;56.54
60820;BME280;46641;48.904;9.126;2022-10-16T09:39:08;98702.59;;;20.33;57.31
60820;BME280;46641;48.904;9.126;2022-10-16T09:44:00;98710.56;;;20.40;56.54
60820;BME280;46641;48.904;9.126;2022-10-16T09:48:54;98713.44;;;20.45;56.42
60820;BME280;46641;48.904;9.126;2022-10-16T09:53:46;98709.13;;;20.50;56.31
60820;BME280;46641;48.904;9.126;2022-10-16T09:58:37;98716.31;;;20.57;56.04
60820;BME280;46641;48.904;9.126;2022-10-16T10:03:36;98720.63;;;20.64;56.20
60820;BME280;46641;48.904;9.126;2022-10-16T10:08:27;98727.53;;;20.72;55.68
60820;BME280;46641;48.904;9.126;2022-10-16T10:13:22;98722.03;;;20.80;55.81
60820;BME280;46641;48.904;9.126;2022-10-16T10:18:16;98727.31;;;20.87;55.41
60820;BME280;46641;48.904;9.126;2022-10-16T10:23:22;98726.28;;;20.94;55.70
60820;BME280;46641;48.904;9.126;2022-10-16T10:38:30;98741.78;;;21.11;57.07
60820;BME280;46641;48.904;9.126;2022-10-16T10:43:44;98738.06;;;21.18;57.01
60820;BME280;46641;48.904;9.126;2022-10-16T10:48:51;98733.31;;;21.27;57.02
60820;BME280;46641;48.904;9.126;2022-10-16T10:54:05;98738.47;;;21.35;57.32
60820;BME280;46641;48.904;9.126;2022-10-16T10:59:28;98733.09;;;21.42;56.83
60820;BME280;46641;48.904;9.126;2022-10-16T11:04:42;98732.66;;;21.52;56.76
60820;BME280;46641;48.904;9.126;2022-10-16T11:09:46;98736.91;;;21.59;56.53
60820;BME280;46641;48.904;9.126;2022-10-16T11:24:45;98721.78;;;21.85;57.22
60820;BME280;46641;48.904;9.126;2022-10-16T11:29:45;98722.94;;;21.96;57.37
60820;BME280;46641;48.904;9.126;2022-10-16T11:34:53;98718.31;;;22.09;57.13
60820;BME280;46641;48.904;9.126;2022-10-16T11:39:46;98718.09;;;22.17;57.69
60820;BME280;46641;48.904;9.126;2022-10-16T11:45:07;98719.25;;;22.28;57.10
60820;BME280;46641;48.904;9.126;2022-10-16T11:55:14;98731.59;;;22.48;57.36
60820;BME280;46641;48.904;9.126;2022-10-16T12:00:19;98719.38;;;22.58;57.39
60820;BME280;46641;48.904;9.126;2022-10-16T12:05:31;98709.25;;;22.67;57.37
60820;BME280;46641;48.904;9.126;2022-10-16T12:10:28;98711.63;;;22.75;56.93
60820;BME280;46641;48.904;9.126;2022-10-16T12:25:21;98710.75;;;22.81;56.92
60820;BME280;46641;48.904;9.126;2022-10-16T12:30:21;98708.81;;;22.89;56.69
60820;BME280;46641;48.904;9.126;2022-10-16T12:35:25;98706.31;;;22.94;56.81
60820;BME280;46641;48.904;9.126;2022-10-16T12:40:27;98700.09;;;23.00;56.83
60820;BME280;46641;48.904;9.126;2022-10-16T12:45:31;98707.44;;;23.04;56.81
60820;BME280;46641;48.904;9.126;2022-10-16T12:50:36;98707.81;;;23.08;56.46
60820;BME280;46641;48.904;9.126;2022-10-16T12:55:32;98711.44;;;23.14;56.39
60820;BME280;46641;48.904;9.126;2022-10-16T13:21:25;98725.59;;;23.32;55.47
60820;BME280;46641;48.904;9.126;2022-10-16T13:31:22;98720.06;;;23.46;55.93
60820;BME280;46641;48.904;9.126;2022-10-16T13:36:20;98724.31;;;23.53;56.37
60820;BME280;46641;48.904;9.126;2022-10-16T13:41:17;98722.81;;;23.58;56.30
60820;BME280;46641;48.904;9.126;2022-10-16T13:46:16;98722.72;;;23.64;55.81
60820;BME280;46641;48.904;9.126;2022-10-16T13:51:15;98731.72;;;23.70;55.24
60820;BME280;46641;48.904;9.126;2022-10-16T13:56:14;98725.09;;;23.72;55.43
60820;BME280;46641;48.904;9.126;2022-10-16T14:01:19;98711.50;;;23.74;54.90
60820;BME280;46641;48.904;9.126;2022-10-16T14:06:16;98722.78;;;23.76;55.47
60820;BME280;46641;48.904;9.126;2022-10-16T14:11:07;98717.22;;;23.77;55.86
60820;BME280;46641;48.904;9.126;2022-10-16T14:16:00;98719.19;;;23.82;55.70
60820;BME280;46641;48.904;9.126;2022-10-16T14:20:52;98725.94;;;23.85;55.80
60820;BME280;46641;48.904;9.126;2022-10-16T14:25:43;98728.97;;;23.88;56.20
60820;BME280;46641;48.904;9.126;2022-10-16T14:30:35;98724.47;;;23.89;55.74
60820;BME280;46641;48.904;9.126;2022-10-16T14:35:35;98725.28;;;23.89;55.94
60820;BME280;46641;48.904;9.126;2022-10-16T14:40:29;98721.78;;;23.89;55.75
60820;BME280;46641;48.904;9.126;2022-10-16T14:45:22;98734.66;;;23.92;55.80
60820;BME280;46641;48.904;9.126;2022-10-16T14:50:13;98730.97;;;23.93;56.30
60820;BME280;46641;48.904;9.126;2022-10-16T14:55:04;98730.16;;;23.92;55.88
60820;BME280;46641;48.904;9.126;2022-10-16T14:59:54;98728.31;;;23.93;55.70
60820;BME280;46641;48.904;9.126;2022-10-16T15:04:46;98725.84;;;23.91;55.57
60820;BME280;46641;48.904;9.126;2022-10-16T15:09:37;98729.91;;;23.94;55.27
60820;BME280;46641;48.904;9.126;2022-10-16T15:14:27;98727.84;;;23.96;54.71
60820;BME280;46641;48.904;9.126;2022-10-16T15:19:17;98721.91;;;23.94;54.57
60820;BME280;46641;48.904;9.126;2022-10-16T15:24:10;98722.50;;;23.96;54.94
60820;BME280;46641;48.904;9.126;2022-10-16T15:29:01;98728.88;;;23.95;55.17
60820;BME280;46641;48.904;9.126;2022-10-16T15:33:53;98732.38;;;23.95;55.50
60820;BME280;46641;48.904;9.126;2022-10-16T15:38:48;98738.75;;;23.94;55.07
60820;BME280;46641;48.904;9.126;2022-10-16T15:43:38;98737.13;;;23.93;55.17
60820;BME280;46641;48.904;9.126;2022-10-16T15:48:29;98740.84;;;23.92;55.07
60820;BME280;46641;48.904;9.126;2022-10-16T15:53:20;98732.47;;;23.89;55.32
60820;BME280;46641;48.904;9.126;2022-10-16T15:58:10;98741.06;;;23.91;55.13
60820;BME280;46641;48.904;9.126;2022-10-16T16:03:00;98742.69;;;23.92;55.08
60820;BME280;46641;48.904;9.126;2022-10-16T16:07:51;98744.78;;;23.90;55.13
60820;BME280;46641;48.904;9.126;2022-10-16T16:12:41;98734.91;;;23.90;54.82
60820;BME280;46641;48.904;9.126;2022-10-16T16:17:32;98734.56;;;23.87;55.09
60820;BME280;46641;48.904;9.126;2022-10-16T16:22:23;98732.09;;;23.85;54.94
60820;BME280;46641;48.904;9.126;2022-10-16T16:27:13;98733.75;;;23.86;55.13
60820;BME280;46641;48.904;9.126;2022-10-16T16:32:04;98743.84;;;23.84;55.19
60820;BME280;46641;48.904;9.126;2022-10-16T16:36:55;98743.47;;;23.81;54.88
60820;BME280;46641;48.904;9.126;2022-10-16T16:41:46;98749.88;;;23.79;54.97
60820;BME280;46641;48.904;9.126;2022-10-16T16:46:37;98753.00;;;23.76;55.20
60820;BME280;46641;48.904;9.126;2022-10-16T16:51:29;98758.00;;;23.73;54.57
60820;BME280;46641;48.904;9.126;2022-10-16T16:56:21;98762.75;;;23.71;54.93
60820;BME280;46641;48.904;9.126;2022-10-16T17:01:11;98766.28;;;23.65;54.79
60820;BME280;46641;48.904;9.126;2022-10-16T17:06:06;98769.75;;;23.65;54.67
60820;BME280;46641;48.904;9.126;2022-10-16T17:10:57;98777.66;;;23.60;54.52
60820;BME280;46641;48.904;9.126;2022-10-16T17:15:49;98778.31;;;23.55;54.62
60820;BME280;46641;48.904;9.126;2022-10-16T17:20:40;98789.25;;;23.54;54.42
60820;BME280;46641;48.904;9.126;2022-10-16T17:25:30;98789.91;;;23.49;54.21
60820;BME280;46641;48.904;9.126;2022-10-16T17:30:23;98799.19;;;23.47;54.24
60820;BME280;46641;48.904;9.126;2022-10-16T17:35:13;98796.97;;;23.44;54.51
60820;BME280;46641;48.904;9.126;2022-10-16T17:40:04;98813.44;;;23.41;54.13
60820;BME280;46641;48.904;9.126;2022-10-16T17:44:54;98811.78;;;23.40;54.01
60820;BME280;46641;48.904;9.126;2022-10-16T17:49:44;98816.75;;;23.36;54.17
60820;BME280;46641;48.904;9.126;2022-10-16T17:54:35;98819.88;;;23.33;54.45
60820;BME280;46641;48.904;9.126;2022-10-16T17:59:25;98824.03;;;23.29;54.07
60820;BME280;46641;48.904;9.126;2022-10-16T18:04:17;98823.06;;;23.23;54.11
60820;BME280;46641;48.904;9.126;2022-10-16T18:09:09;98832.13;;;23.22;54.36
60820;BME280;46641;48.904;9.126;2022-10-16T18:14:00;98832.56;;;23.19;53.87
60820;BME280;46641;48.904;9.126;2022-10-16T18:18:50;98831.59;;;23.14;54.35
60820;BME280;46641;48.904;9.126;2022-10-16T18:23:42;98837.38;;;23.10;54.17
60820;BME280;46641;48.904;9.126;2022-10-16T18:28:33;98844.19;;;23.06;54.19
60820;BME280;46641;48.904;9.126;2022-10-16T18:33:24;98851.81;;;23.03;54.33
60820;BME280;46641;48.904;9.126;2022-10-16T18:38:15;98869.31;;;22.99;54.17
60820;BME280;46641;48.904;9.126;2022-10-16T18:43:05;98862.16;;;22.93;54.51
60820;BME280;46641;48.904;9.126;2022-10-16T18:47:55;98861.97;;;22.87;54.16
60820;BME280;46641;48.904;9.126;2022-10-16T18:52:47;98859.16;;;22.82;54.39
60820;BME280;46641;48.904;9.126;2022-10-16T18:57:38;98866.00;;;22.78;54.29
60820;BME280;46641;48.904;9.126;2022-10-16T19:02:28;98871.75;;;22.75;54.47
60820;BME280;46641;48.904;9.126;2022-10-16T19:07:18;98866.47;;;22.69;54.30
60820;BME280;46641;48.904;9.126;2022-10-16T19:12:09;98881.88;;;22.67;54.80
60820;BME280;46641;48.904;9.126;2022-10-16T19:16:59;98877.19;;;22.62;54.67
60820;BME280;46641;48.904;9.126;2022-10-16T19:21:50;98879.44;;;22.58;55.13
60820;BME280;46641;48.904;9.126;2022-10-16T19:26:45;98887.06;;;22.55;55.12
60820;BME280;46641;48.904;9.126;2022-10-16T19:31:35;98884.84;;;22.52;55.06
60820;BME280;46641;48.904;9.126;2022-10-16T19:36:29;98893.25;;;22.49;55.44
60820;BME280;46641;48.904;9.126;2022-10-16T19:41:20;98892.88;;;22.45;55.37
60820;BME280;46641;48.904;9.126;2022-10-16T19:46:13;98900.50;;;22.42;54.93
60820;BME280;46641;48.904;9.126;2022-10-16T19:51:04;98900.91;;;22.38;54.87
60820;BME280;46641;48.904;9.126;2022-10-16T19:55:55;98912.88;;;22.36;55.05
60820;BME280;46641;48.904;9.126;2022-10-16T20:00:45;98916.75;;;22.33;54.89
60820;BME280;46641;48.904;9.126;2022-10-16T20:05:36;98925.19;;;22.30;54.79
60820;BME280;46641;48.904;9.126;2022-10-16T20:10:26;98928.47;;;22.26;54.81
60820;BME280;46641;48.904;9.126;2022-10-16T20:15:16;98935.66;;;22.25;54.92
60820;BME280;46641;48.904;9.126;2022-10-16T20:20:07;98943.28;;;22.22;54.99
60820;BME280;46641;48.904;9.126;2022-10-16T20:24:58;98951.50;;;22.20;54.61
60820;BME280;46641;48.904;9.126;2022-10-16T20:29:48;98957.25;;;22.17;54.64
60820;BME280;46641;48.904;9.126;2022-10-16T20:34:38;98958.47;;;22.14;54.50
60820;BME280;46641;48.904;9.126;2022-10-16T20:39:29;98966.06;;;22.11;54.77
60820;BME280;46641;48.904;9.126;2022-10-16T20:44:19;98978.19;;;22.07;54.80
60820;BME280;46641;48.904;9.126;2022-10-16T20:49:09;98979.41;;;22.04;55.18
60820;BME280;46641;48.904;9.126;2022-10-16T20:54:03;98980.66;;;22.02;55.42
60820;BME280;46641;48.904;9.126;2022-10-16T20:58:54;98981.06;;;21.99;55.00
60820;BME280;46641;48.904;9.126;2022-10-16T21:03:49;98994.00;;;21.95;55.24
60820;BME280;46641;48.904;9.126;2022-10-16T21:08:41;99000.56;;;21.92;54.57
60820;BME280;46641;48.904;9.126;2022-10-16T21:13:32;99009.78;;;21.90;54.95
60820;BME280;46641;48.904;9.126;2022-10-16T21:18:22;99010.19;;;21.87;54.89
60820;BME280;46641;48.904;9.126;2022-10-16T21:23:12;99013.50;;;21.82;54.97
60820;BME280;46641;48.904;9.126;2022-10-16T21:28:03;99012.28;;;21.78;54.80
60820;BME280;46641;48.904;9.126;2022-10-16T21:32:53;99012.47;;;21.77;54.85
60820;BME280;46641;48.904;9.126;2022-10-16T21:37:49;99013.09;;;21.72;55.13
60820;BME280;46641;48.904;9.126;2022-10-16T21:42:39;99004.91;;;21.67;54.92
60820;BME280;46641;48.904;9.126;2022-10-16T21:47:30;99013.13;;;21.65;55.02
60820;BME280;46641;48.904;9.126;2022-10-16T21:52:21;99005.72;;;21.61;54.94
60820;BME280;46641;48.904;9.126;2022-10-16T21:57:11;99015.16;;;21.57;54.50
60820;BME280;46641;48.904;9.126;2022-10-16T22:02:01;99012.09;;;21.53;54.96
60820;BME280;46641;48.904;9.126;2022-10-16T22:06:52;99014.34;;;21.50;55.09
60820;BME280;46641;48.904;9.126;2022-10-16T22:11:43;99020.09;;;21.46;55.22
60820;BME280;46641;48.904;9.126;2022-10-16T22:16:34;99029.28;;;21.44;55.00
60820;BME280;46641;48.904;9.126;2022-10-16T22:21:26;99019.28;;;21.39;55.05
60820;BME280;46641;48.904;9.126;2022-10-16T22:26:17;99026.63;;;21.37;55.21
60820;BME280;46641;48.904;9.126;2022-10-16T22:31:10;99029.06;;;21.32;55.45
60820;BME280;46641;48.904;9.126;2022-10-16T22:36:02;99032.75;;;21.31;55.35
60820;BME280;46641;48.904;9.126;2022-10-16T22:40:53;99024.97;;;21.30;54.98
60820;BME280;46641;48.904;9.126;2022-10-16T22:45:43;99020.88;;;21.27;55.15
60820;BME280;46641;48.904;9.126;2022-10-16T22:50:33;99018.84;;;21.29;55.09
60820;BME280;46641;48.904;9.126;2022-10-16T22:55:24;99013.69;;;21.28;55.15
60820;BME280;46641;48.904;9.126;2022-10-16T23:00:17;99009.59;;;21.25;55.15
60820;BME280;46641;48.904;9.126;2022-10-16T23:05:09;99018.81;;;21.22;55.17
60820;BME280;46641;48.904;9.126;2022-10-16T23:09:59;99015.53;;;21.20;55.24
60820;BME280;46641;48.904;9.126;2022-10-16T23:14:49;99016.16;;;21.16;55.32
60820;BME280;46641;48.904;9.126;2022-10-16T23:19:39;99028.84;;;21.14;55.31
60820;BME280;46641;48.904;9.126;2022-10-16T23:24:30;99026.59;;;21.11;55.28
60820;BME280;46641;48.904;9.126;2022-10-16T23:29:20;99031.09;;;21.10;55.27
60820;BME280;46641;48.904;9.126;2022-10-16T23:34:11;99044.00;;;21.07;55.24
60820;BME280;46641;48.904;9.126;2022-10-16T23:39:01;99048.69;;;21.05;55.29
60820;BME280;46641;48.904;9.126;2022-10-16T23:43:51;99053.19;;;20.97;55.38
60820;BME280;46641;48.904;9.126;2022-10-16T23:48:42;99059.72;;;20.95;55.26
60820;BME280;46641;48.904;9.126;2022-10-16T23:53:33;99063.00;;;20.90;55.51
60820;BME280;46641;48.904;9.126;2022-10-16T23:58:23;99070.75;;;20.85;55.55
